sensor_id;sensor_type;location;lat;lon;timestamp;P1;durP1;ratioP1;P2;durP2;ratioP2
7191;SDS011;3637;51.494;11.958;2022-12-05T00:01:42;46.07;;;19.60;;
7191;SDS011;3637;51.494;11.958;2022-12-05T00:04:44;47.77;;;17.93;;
7191;SDS011;3637;51.494;11.958;2022-12-05T00:07:47;39.23;;;17.97;;
7191;SDS011;3637;51.494;11.958;2022-12-05T00:10:49;45.47;;;18.80;;
7191;SDS011;3637;51.494;11.958;2022-12-05T00:13:52;45.20;;;19.13;;
7191;SDS011;3637;51.494;11.958;2022-12-05T00:16:55;37.07;;;17.00;;
7191;SDS011;3637;51.494;11.958;2022-12-05T00:19:57;38.80;;;16.90;;
7191;SDS011;3637;51.494;11.958;2022-12-05T00:23:00;47.27;;;19.03;;
7191;SDS011;3637;51.494;11.958;2022-12-05T00:26:02;45.87;;;19.47;;
7191;SDS011;3637;51.494;11.958;2022-12-05T00:29:04;37.07;;;17.07;;
7191;SDS011;3637;51.494;11.958;2022-12-05T00:32:06;38.13;;;17.17;;
7191;SDS011;3637;51.494;11.958;2022-12-05T00:35:08;42.03;;;18.57;;
7191;SDS011;3637;51.494;11.958;2022-12-05T00:38:11;37.50;;;16.77;;
7191;SDS011;3637;51.494;11.958;2022-12-05T00:41:14;35.80;;;15.77;;
7191;SDS011;3637;51.494;11.958;2022-12-05T00:44:18;33.30;;;16.40;;
7191;SDS011;3637;51.494;11.958;2022-12-05T00:47:20;35.70;;;16.33;;
7191;SDS011;3637;51.494;11.958;2022-12-05T00:50:21;35.37;;;16.40;;
7191;SDS011;3637;51.494;11.958;2022-12-05T00:53:25;34.40;;;15.03;;
7191;SDS011;3637;51.494;11.958;2022-12-05T00:56:27;35.77;;;15.37;;
7191;SDS011;3637;51.494;11.958;2022-12-05T00:59:29;35.33;;;15.30;;
7191;SDS011;3637;51.494;11.958;2022-12-05T01:02:31;32.73;;;16.20;;
7191;SDS011;3637;51.494;11.958;2022-12-05T01:05:33;36.00;;;14.80;;
7191;SDS011;3637;51.494;11.958;2022-12-05T01:08:37;28.60;;;15.80;;
7191;SDS011;3637;51.494;11.958;2022-12-05T01:11:39;31.07;;;14.93;;
7191;SDS011;3637;51.494;11.958;2022-12-05T01:14:41;39.00;;;15.43;;
7191;SDS011;3637;51.494;11.958;2022-12-05T01:17:43;32.30;;;16.03;;
7191;SDS011;3637;51.494;11.958;2022-12-05T01:20:44;34.60;;;16.17;;
7191;SDS011;3637;51.494;11.958;2022-12-05T01:23:48;30.13;;;13.50;;
7191;SDS011;3637;51.494;11.958;2022-12-05T01:26:51;33.63;;;16.17;;
7191;SDS011;3637;51.494;11.958;2022-12-05T01:29:53;42.57;;;16.93;;
7191;SDS011;3637;51.494;11.958;2022-12-05T01:32:55;32.23;;;15.30;;
7191;SDS011;3637;51.494;11.958;2022-12-05T01:35:58;30.20;;;15.33;;
7191;SDS011;3637;51.494;11.958;2022-12-05T01:39:02;33.13;;;14.40;;
7191;SDS011;3637;51.494;11.958;2022-12-05T01:42:04;34.13;;;15.73;;
7191;SDS011;3637;51.494;11.958;2022-12-05T01:45:09;31.50;;;14.67;;
7191;SDS011;3637;51.494;11.958;2022-12-05T01:48:16;38.73;;;18.03;;
7191;SDS011;3637;51.494;11.958;2022-12-05T01:51:22;38.40;;;16.83;;
7191;SDS011;3637;51.494;11.958;2022-12-05T01:54:26;36.07;;;16.00;;
7191;SDS011;3637;51.494;11.958;2022-12-05T01:57:29;34.60;;;15.67;;
7191;SDS011;3637;51.494;11.958;2022-12-05T02:00:33;33.20;;;14.70;;
7191;SDS011;3637;51.494;11.958;2022-12-05T02:03:35;34.57;;;15.97;;
7191;SDS011;3637;51.494;11.958;2022-12-05T02:06:38;36.90;;;15.63;;
7191;SDS011;3637;51.494;11.958;2022-12-05T02:09:41;45.70;;;17.60;;
7191;SDS011;3637;51.494;11.958;2022-12-05T02:12:43;33.87;;;16.23;;
7191;SDS011;3637;51.494;11.958;2022-12-05T02:15:46;38.23;;;17.23;;
7191;SDS011;3637;51.494;11.958;2022-12-05T02:18:56;39.00;;;17.37;;
7191;SDS011;3637;51.494;11.958;2022-12-05T02:22:19;33.93;;;16.13;;
7191;SDS011;3637;51.494;11.958;2022-12-05T02:25:45;34.33;;;14.57;;
7191;SDS011;3637;51.494;11.958;2022-12-05T02:32:54;42.70;;;15.67;;
7191;SDS011;3637;51.494;11.958;2022-12-05T02:36:08;34.40;;;16.30;;
7191;SDS011;3637;51.494;11.958;2022-12-05T02:39:16;33.27;;;14.33;;
7191;SDS011;3637;51.494;11.958;2022-12-05T02:42:24;32.27;;;16.13;;
7191;SDS011;3637;51.494;11.958;2022-12-05T02:45:32;31.47;;;15.37;;
7191;SDS011;3637;51.494;11.958;2022-12-05T02:48:40;33.73;;;16.00;;
7191;SDS011;3637;51.494;11.958;2022-12-05T02:51:46;31.77;;;14.83;;
7191;SDS011;3637;51.494;11.958;2022-12-05T02:54:51;32.10;;;14.73;;
7191;SDS011;3637;51.494;11.958;2022-12-05T02:57:55;32.70;;;15.47;;
7191;SDS011;3637;51.494;11.958;2022-12-05T03:01:01;29.83;;;12.63;;
7191;SDS011;3637;51.494;11.958;2022-12-05T03:04:05;32.13;;;15.23;;
7191;SDS011;3637;51.494;11.958;2022-12-05T03:07:10;37.00;;;15.83;;
7191;SDS011;3637;51.494;11.958;2022-12-05T03:10:14;26.90;;;13.40;;
7191;SDS011;3637;51.494;11.958;2022-12-05T03:13:18;30.83;;;14.03;;
7191;SDS011;3637;51.494;11.958;2022-12-05T03:16:27;31.70;;;14.70;;
7191;SDS011;3637;51.494;11.958;2022-12-05T03:19:33;29.03;;;14.13;;
7191;SDS011;3637;51.494;11.958;2022-12-05T03:22:42;29.47;;;14.83;;
7191;SDS011;3637;51.494;11.958;2022-12-05T03:25:52;26.13;;;12.47;;
7191;SDS011;3637;51.494;11.958;2022-12-05T03:29:08;29.00;;;13.30;;
7191;SDS011;3637;51.494;11.958;2022-12-05T03:32:21;25.57;;;13.27;;
7191;SDS011;3637;51.494;11.958;2022-12-05T03:35:29;29.20;;;12.93;;
7191;SDS011;3637;51.494;11.958;2022-12-05T03:38:39;25.80;;;13.27;;
7191;SDS011;3637;51.494;11.958;2022-12-05T03:41:47;21.07;;;10.50;;
7191;SDS011;3637;51.494;11.958;2022-12-05T03:44:58;25.43;;;13.13;;
7191;SDS011;3637;51.494;11.958;2022-12-05T03:48:05;23.37;;;12.03;;
7191;SDS011;3637;51.494;11.958;2022-12-05T03:51:13;21.33;;;12.13;;
7191;SDS011;3637;51.494;11.958;2022-12-05T03:54:20;23.10;;;10.90;;
7191;SDS011;3637;51.494;11.958;2022-12-05T03:57:26;18.43;;;10.97;;
7191;SDS011;3637;51.494;11.958;2022-12-05T04:00:32;21.23;;;11.30;;
7191;SDS011;3637;51.494;11.958;2022-12-05T04:03:39;20.60;;;10.90;;
7191;SDS011;3637;51.494;11.958;2022-12-05T04:06:46;19.37;;;9.30;;
7191;SDS011;3637;51.494;11.958;2022-12-05T04:09:54;18.87;;;10.40;;
7191;SDS011;3637;51.494;11.958;2022-12-05T04:12:58;20.63;;;11.27;;
7191;SDS011;3637;51.494;11.958;2022-12-05T04:16:18;16.93;;;9.27;;
7191;SDS011;3637;51.494;11.958;2022-12-05T04:19:41;16.40;;;9.97;;
7191;SDS011;3637;51.494;11.958;2022-12-05T04:23:05;14.30;;;9.17;;
7191;SDS011;3637;51.494;11.958;2022-12-05T04:26:10;16.43;;;8.50;;
7191;SDS011;3637;51.494;11.958;2022-12-05T04:29:18;14.83;;;8.27;;
7191;SDS011;3637;51.494;11.958;2022-12-05T04:32:26;13.63;;;8.13;;
7191;SDS011;3637;51.494;11.958;2022-12-05T04:35:33;13.50;;;7.77;;
7191;SDS011;3637;51.494;11.958;2022-12-05T04:38:42;10.93;;;7.83;;
7191;SDS011;3637;51.494;11.958;2022-12-05T04:41:49;11.53;;;7.10;;
7191;SDS011;3637;51.494;11.958;2022-12-05T04:44:54;11.47;;;6.93;;
7191;SDS011;3637;51.494;11.958;2022-12-05T04:48:03;11.57;;;7.30;;
7191;SDS011;3637;51.494;11.958;2022-12-05T04:51:11;11.20;;;7.33;;
7191;SDS011;3637;51.494;11.958;2022-12-05T04:54:20;11.33;;;6.90;;
7191;SDS011;3637;51.494;11.958;2022-12-05T04:57:28;10.97;;;7.43;;
7191;SDS011;3637;51.494;11.958;2022-12-05T05:00:34;11.40;;;7.00;;
7191;SDS011;3637;51.494;11.958;2022-12-05T05:03:45;12.37;;;7.17;;
7191;SDS011;3637;51.494;11.958;2022-12-05T05:06:54;8.73;;;5.80;;
7191;SDS011;3637;51.494;11.958;2022-12-05T05:09:57;11.97;;;6.73;;
7191;SDS011;3637;51.494;11.958;2022-12-05T05:12:59;12.13;;;7.00;;
7191;SDS011;3637;51.494;11.958;2022-12-05T05:16:01;9.90;;;6.57;;
7191;SDS011;3637;51.494;11.958;2022-12-05T05:19:03;12.40;;;7.40;;
7191;SDS011;3637;51.494;11.958;2022-12-05T05:22:06;10.63;;;7.13;;
7191;SDS011;3637;51.494;11.958;2022-12-05T05:25:09;12.00;;;6.53;;
7191;SDS011;3637;51.494;11.958;2022-12-05T05:28:14;9.87;;;6.23;;
7191;SDS011;3637;51.494;11.958;2022-12-05T05:31:16;7.57;;;5.67;;
7191;SDS011;3637;51.494;11.958;2022-12-05T05:34:19;9.97;;;5.80;;
7191;SDS011;3637;51.494;11.958;2022-12-05T05:37:20;9.17;;;6.57;;
7191;SDS011;3637;51.494;11.958;2022-12-05T05:40:24;10.43;;;6.43;;
7191;SDS011;3637;51.494;11.958;2022-12-05T05:43:25;9.83;;;6.30;;
7191;SDS011;3637;51.494;11.958;2022-12-05T05:46:28;8.67;;;6.10;;
7191;SDS011;3637;51.494;11.958;2022-12-05T05:49:31;9.90;;;6.13;;
7191;SDS011;3637;51.494;11.958;2022-12-05T05:52:33;10.27;;;5.43;;
7191;SDS011;3637;51.494;11.958;2022-12-05T05:55:39;8.33;;;4.87;;
7191;SDS011;3637;51.494;11.958;2022-12-05T05:58:41;9.13;;;5.70;;
7191;SDS011;3637;51.494;11.958;2022-12-05T06:01:43;9.87;;;6.03;;
7191;SDS011;3637;51.494;11.958;2022-12-05T06:04:45;7.70;;;5.87;;
7191;SDS011;3637;51.494;11.958;2022-12-05T06:07:47;8.97;;;5.70;;
7191;SDS011;3637;51.494;11.958;2022-12-05T06:10:50;11.80;;;6.43;;
7191;SDS011;3637;51.494;11.958;2022-12-05T06:13:52;11.63;;;6.37;;
7191;SDS011;3637;51.494;11.958;2022-12-05T06:16:55;9.47;;;5.93;;
7191;SDS011;3637;51.494;11.958;2022-12-05T06:19:57;10.10;;;5.67;;
7191;SDS011;3637;51.494;11.958;2022-12-05T06:22:58;9.37;;;6.33;;
7191;SDS011;3637;51.494;11.958;2022-12-05T06:26:02;9.10;;;5.90;;
7191;SDS011;3637;51.494;11.958;2022-12-05T06:29:05;9.10;;;5.17;;
7191;SDS011;3637;51.494;11.958;2022-12-05T06:32:07;8.10;;;5.50;;
7191;SDS011;3637;51.494;11.958;2022-12-05T06:35:09;8.50;;;5.90;;
7191;SDS011;3637;51.494;11.958;2022-12-05T06:38:14;10.47;;;5.60;;
7191;SDS011;3637;51.494;11.958;2022-12-05T06:41:18;8.23;;;5.77;;
7191;SDS011;3637;51.494;11.958;2022-12-05T06:44:23;12.93;;;6.57;;
7191;SDS011;3637;51.494;11.958;2022-12-05T06:47:27;10.30;;;6.80;;
7191;SDS011;3637;51.494;11.958;2022-12-05T06:50:29;7.50;;;4.77;;
7191;SDS011;3637;51.494;11.958;2022-12-05T06:53:31;10.00;;;5.23;;
7191;SDS011;3637;51.494;11.958;2022-12-05T06:56:34;8.17;;;5.00;;
7191;SDS011;3637;51.494;11.958;2022-12-05T06:59:36;8.10;;;5.37;;
7191;SDS011;3637;51.494;11.958;2022-12-05T07:02:38;7.30;;;5.53;;
7191;SDS011;3637;51.494;11.958;2022-12-05T07:05:40;9.83;;;5.40;;
7191;SDS011;3637;51.494;11.958;2022-12-05T07:08:42;10.33;;;6.03;;
7191;SDS011;3637;51.494;11.958;2022-12-05T07:11:46;9.43;;;6.03;;
7191;SDS011;3637;51.494;11.958;2022-12-05T07:14:49;7.77;;;5.53;;
7191;SDS011;3637;51.494;11.958;2022-12-05T07:17:50;9.33;;;5.77;;
7191;SDS011;3637;51.494;11.958;2022-12-05T07:20:56;10.27;;;5.93;;
7191;SDS011;3637;51.494;11.958;2022-12-05T07:23:58;10.80;;;5.33;;
7191;SDS011;3637;51.494;11.958;2022-12-05T07:27:02;9.23;;;5.40;;
7191;SDS011;3637;51.494;11.958;2022-12-05T07:30:05;10.87;;;5.90;;
7191;SDS011;3637;51.494;11.958;2022-12-05T07:33:08;6.53;;;4.73;;
7191;SDS011;3637;51.494;11.958;2022-12-05T07:36:10;7.30;;;5.57;;
7191;SDS011;3637;51.494;11.958;2022-12-05T07:39:13;7.40;;;5.47;;
7191;SDS011;3637;51.494;11.958;2022-12-05T07:42:16;8.50;;;5.70;;
7191;SDS011;3637;51.494;11.958;2022-12-05T07:45:18;11.43;;;5.97;;
7191;SDS011;3637;51.494;11.958;2022-12-05T07:48:20;7.50;;;5.30;;
7191;SDS011;3637;51.494;11.958;2022-12-05T07:51:22;9.43;;;5.93;;
7191;SDS011;3637;51.494;11.958;2022-12-05T07:54:24;10.67;;;6.17;;
7191;SDS011;3637;51.494;11.958;2022-12-05T07:57:30;11.00;;;5.30;;
7191;SDS011;3637;51.494;11.958;2022-12-05T08:00:32;9.33;;;5.53;;
7191;SDS011;3637;51.494;11.958;2022-12-05T08:03:34;8.17;;;5.20;;
7191;SDS011;3637;51.494;11.958;2022-12-05T08:06:37;8.13;;;5.33;;
7191;SDS011;3637;51.494;11.958;2022-12-05T08:09:39;7.83;;;5.03;;
7191;SDS011;3637;51.494;11.958;2022-12-05T08:12:42;10.00;;;5.10;;
7191;SDS011;3637;51.494;11.958;2022-12-05T08:15:44;9.17;;;5.80;;
7191;SDS011;3637;51.494;11.958;2022-12-05T08:18:46;10.53;;;5.57;;
7191;SDS011;3637;51.494;11.958;2022-12-05T08:21:48;12.93;;;6.23;;
7191;SDS011;3637;51.494;11.958;2022-12-05T08:24:51;7.70;;;5.40;;
7191;SDS011;3637;51.494;11.958;2022-12-05T08:27:54;14.87;;;6.37;;
7191;SDS011;3637;51.494;11.958;2022-12-05T08:31:01;9.77;;;5.33;;
7191;SDS011;3637;51.494;11.958;2022-12-05T08:34:04;10.50;;;5.67;;
7191;SDS011;3637;51.494;11.958;2022-12-05T08:37:06;9.00;;;5.70;;
7191;SDS011;3637;51.494;11.958;2022-12-05T08:40:09;10.77;;;5.73;;
7191;SDS011;3637;51.494;11.958;2022-12-05T08:43:12;9.03;;;5.57;;
7191;SDS011;3637;51.494;11.958;2022-12-05T08:46:14;8.07;;;5.57;;
7191;SDS011;3637;51.494;11.958;2022-12-05T08:49:17;9.13;;;6.40;;
7191;SDS011;3637;51.494;11.958;2022-12-05T08:52:19;9.17;;;5.57;;
7191;SDS011;3637;51.494;11.958;2022-12-05T08:55:22;8.03;;;4.80;;
7191;SDS011;3637;51.494;11.958;2022-12-05T08:58:25;8.70;;;5.10;;
7191;SDS011;3637;51.494;11.958;2022-12-05T09:01:27;9.83;;;5.33;;
7191;SDS011;3637;51.494;11.958;2022-12-05T09:04:31;10.03;;;5.47;;
7191;SDS011;3637;51.494;11.958;2022-12-05T09:07:32;14.90;;;5.43;;
7191;SDS011;3637;51.494;11.958;2022-12-05T09:10:36;9.33;;;5.33;;
7191;SDS011;3637;51.494;11.958;2022-12-05T09:13:39;11.27;;;6.60;;
7191;SDS011;3637;51.494;11.958;2022-12-05T09:16:42;8.03;;;5.67;;
7191;SDS011;3637;51.494;11.958;2022-12-05T09:19:45;8.90;;;6.07;;
7191;SDS011;3637;51.494;11.958;2022-12-05T09:22:51;10.00;;;5.30;;
7191;SDS011;3637;51.494;11.958;2022-12-05T09:25:53;8.83;;;5.50;;
7191;SDS011;3637;51.494;11.958;2022-12-05T09:28:58;10.83;;;5.67;;
7191;SDS011;3637;51.494;11.958;2022-12-05T09:32:02;8.80;;;4.47;;
7191;SDS011;3637;51.494;11.958;2022-12-05T09:35:04;10.33;;;5.93;;
7191;SDS011;3637;51.494;11.958;2022-12-05T09:38:07;7.97;;;5.17;;
7191;SDS011;3637;51.494;11.958;2022-12-05T09:41:11;10.73;;;6.27;;
7191;SDS011;3637;51.494;11.958;2022-12-05T09:44:51;6.87;;;4.67;;
7191;SDS011;3637;51.494;11.958;2022-12-05T09:48:04;5.80;;;4.90;;
7191;SDS011;3637;51.494;11.958;2022-12-05T09:51:11;11.20;;;5.97;;
7191;SDS011;3637;51.494;11.958;2022-12-05T09:54:13;8.63;;;5.17;;
7191;SDS011;3637;51.494;11.958;2022-12-05T09:57:16;13.03;;;6.70;;
7191;SDS011;3637;51.494;11.958;2022-12-05T10:00:32;10.67;;;7.63;;
7191;SDS011;3637;51.494;11.958;2022-12-05T10:03:38;9.90;;;6.27;;
7191;SDS011;3637;51.494;11.958;2022-12-05T10:06:44;12.20;;;7.27;;
7191;SDS011;3637;51.494;11.958;2022-12-05T10:09:53;9.77;;;6.67;;
7191;SDS011;3637;51.494;11.958;2022-12-05T10:13:07;12.90;;;6.63;;
7191;SDS011;3637;51.494;11.958;2022-12-05T10:16:20;11.53;;;7.17;;
7191;SDS011;3637;51.494;11.958;2022-12-05T10:19:33;11.10;;;6.10;;
7191;SDS011;3637;51.494;11.958;2022-12-05T10:22:41;10.80;;;5.87;;
7191;SDS011;3637;51.494;11.958;2022-12-05T10:25:47;14.80;;;6.07;;
7191;SDS011;3637;51.494;11.958;2022-12-05T10:28:54;9.30;;;6.20;;
7191;SDS011;3637;51.494;11.958;2022-12-05T10:32:03;11.47;;;6.47;;
7191;SDS011;3637;51.494;11.958;2022-12-05T10:35:13;11.37;;;7.00;;
7191;SDS011;3637;51.494;11.958;2022-12-05T10:38:18;7.63;;;5.27;;
7191;SDS011;3637;51.494;11.958;2022-12-05T10:41:24;9.17;;;5.83;;
7191;SDS011;3637;51.494;11.958;2022-12-05T10:44:29;9.77;;;5.80;;
7191;SDS011;3637;51.494;11.958;2022-12-05T10:47:33;8.40;;;5.13;;
7191;SDS011;3637;51.494;11.958;2022-12-05T10:50:36;10.67;;;5.53;;
7191;SDS011;3637;51.494;11.958;2022-12-05T10:53:42;11.10;;;5.23;;
7191;SDS011;3637;51.494;11.958;2022-12-05T10:56:46;7.03;;;5.43;;
7191;SDS011;3637;51.494;11.958;2022-12-05T10:59:49;9.23;;;5.73;;
7191;SDS011;3637;51.494;11.958;2022-12-05T11:02:53;10.73;;;6.20;;
7191;SDS011;3637;51.494;11.958;2022-12-05T11:05:56;8.23;;;6.10;;
7191;SDS011;3637;51.494;11.958;2022-12-05T11:09:02;9.10;;;4.70;;
7191;SDS011;3637;51.494;11.958;2022-12-05T11:12:15;10.23;;;6.07;;
7191;SDS011;3637;51.494;11.958;2022-12-05T11:15:20;7.93;;;5.23;;
7191;SDS011;3637;51.494;11.958;2022-12-05T11:18:27;7.20;;;5.33;;
7191;SDS011;3637;51.494;11.958;2022-12-05T11:21:34;10.53;;;6.13;;
7191;SDS011;3637;51.494;11.958;2022-12-05T11:24:42;9.03;;;5.10;;
7191;SDS011;3637;51.494;11.958;2022-12-05T11:27:44;10.10;;;5.57;;
7191;SDS011;3637;51.494;11.958;2022-12-05T11:30:54;6.20;;;4.30;;
7191;SDS011;3637;51.494;11.958;2022-12-05T11:34:01;10.60;;;5.63;;
7191;SDS011;3637;51.494;11.958;2022-12-05T11:40:41;10.00;;;5.53;;
7191;SDS011;3637;51.494;11.958;2022-12-05T11:43:55;9.03;;;5.67;;
7191;SDS011;3637;51.494;11.958;2022-12-05T11:47:16;7.20;;;5.43;;
7191;SDS011;3637;51.494;11.958;2022-12-05T11:50:32;6.63;;;4.43;;
7191;SDS011;3637;51.494;11.958;2022-12-05T11:53:45;8.73;;;5.10;;
7191;SDS011;3637;51.494;11.958;2022-12-05T11:56:57;8.60;;;4.83;;
7191;SDS011;3637;51.494;11.958;2022-12-05T12:00:14;8.60;;;6.00;;
7191;SDS011;3637;51.494;11.958;2022-12-05T12:03:28;12.37;;;6.13;;
7191;SDS011;3637;51.494;11.958;2022-12-05T12:06:52;9.20;;;5.17;;
7191;SDS011;3637;51.494;11.958;2022-12-05T12:10:07;7.73;;;5.93;;
7191;SDS011;3637;51.494;11.958;2022-12-05T12:13:23;10.40;;;5.77;;
7191;SDS011;3637;51.494;11.958;2022-12-05T12:16:34;9.77;;;5.33;;
7191;SDS011;3637;51.494;11.958;2022-12-05T12:19:46;10.43;;;6.60;;
7191;SDS011;3637;51.494;11.958;2022-12-05T12:23:04;9.63;;;5.23;;
7191;SDS011;3637;51.494;11.958;2022-12-05T12:26:17;9.53;;;5.17;;
7191;SDS011;3637;51.494;11.958;2022-12-05T12:29:31;9.80;;;5.87;;
7191;SDS011;3637;51.494;11.958;2022-12-05T12:32:47;6.83;;;5.33;;
7191;SDS011;3637;51.494;11.958;2022-12-05T12:36:00;7.70;;;5.07;;
7191;SDS011;3637;51.494;11.958;2022-12-05T12:39:14;11.40;;;6.70;;
7191;SDS011;3637;51.494;11.958;2022-12-05T12:42:26;8.37;;;6.20;;
7191;SDS011;3637;51.494;11.958;2022-12-05T12:48:57;11.50;;;6.20;;
7191;SDS011;3637;51.494;11.958;2022-12-05T12:52:10;8.37;;;5.47;;
7191;SDS011;3637;51.494;11.958;2022-12-05T12:55:18;6.50;;;5.57;;
7191;SDS011;3637;51.494;11.958;2022-12-05T12:58:27;10.30;;;6.20;;
7191;SDS011;3637;51.494;11.958;2022-12-05T13:01:44;10.47;;;5.97;;
7191;SDS011;3637;51.494;11.958;2022-12-05T13:04:52;8.13;;;5.80;;
7191;SDS011;3637;51.494;11.958;2022-12-05T13:08:00;9.57;;;6.23;;
7191;SDS011;3637;51.494;11.958;2022-12-05T13:11:07;8.83;;;5.67;;
7191;SDS011;3637;51.494;11.958;2022-12-05T13:14:13;6.47;;;5.17;;
7191;SDS011;3637;51.494;11.958;2022-12-05T13:17:18;10.60;;;6.10;;
7191;SDS011;3637;51.494;11.958;2022-12-05T13:20:21;7.27;;;5.97;;
7191;SDS011;3637;51.494;11.958;2022-12-05T13:23:28;9.63;;;5.43;;
7191;SDS011;3637;51.494;11.958;2022-12-05T13:26:34;6.87;;;4.80;;
7191;SDS011;3637;51.494;11.958;2022-12-05T13:29:47;7.97;;;5.83;;
7191;SDS011;3637;51.494;11.958;2022-12-05T13:32:54;6.63;;;5.13;;
7191;SDS011;3637;51.494;11.958;2022-12-05T13:36:02;8.73;;;5.83;;
7191;SDS011;3637;51.494;11.958;2022-12-05T13:39:24;8.87;;;5.47;;
7191;SDS011;3637;51.494;11.958;2022-12-05T13:42:45;6.57;;;5.47;;
7191;SDS011;3637;51.494;11.958;2022-12-05T13:45:53;9.03;;;6.30;;
7191;SDS011;3637;51.494;11.958;2022-12-05T13:49:02;9.17;;;5.63;;
7191;SDS011;3637;51.494;11.958;2022-12-05T13:52:09;7.80;;;5.37;;
7191;SDS011;3637;51.494;11.958;2022-12-05T13:55:19;9.87;;;6.47;;
7191;SDS011;3637;51.494;11.958;2022-12-05T13:58:37;9.33;;;6.10;;
7191;SDS011;3637;51.494;11.958;2022-12-05T14:01:49;8.83;;;6.23;;
7191;SDS011;3637;51.494;11.958;2022-12-05T14:04:51;9.53;;;6.37;;
7191;SDS011;3637;51.494;11.958;2022-12-05T14:07:53;7.63;;;5.77;;
7191;SDS011;3637;51.494;11.958;2022-12-05T14:11:06;8.30;;;5.80;;
7191;SDS011;3637;51.494;11.958;2022-12-05T14:14:12;9.60;;;7.13;;
7191;SDS011;3637;51.494;11.958;2022-12-05T14:17:40;11.43;;;7.00;;
7191;SDS011;3637;51.494;11.958;2022-12-05T14:20:48;10.97;;;7.33;;
7191;SDS011;3637;51.494;11.958;2022-12-05T14:24:01;13.33;;;8.50;;
7191;SDS011;3637;51.494;11.958;2022-12-05T14:27:10;12.23;;;7.73;;
7191;SDS011;3637;51.494;11.958;2022-12-05T14:30:22;12.07;;;7.63;;
7191;SDS011;3637;51.494;11.958;2022-12-05T14:33:30;10.50;;;6.77;;
7191;SDS011;3637;51.494;11.958;2022-12-05T14:36:33;9.13;;;6.93;;
7191;SDS011;3637;51.494;11.958;2022-12-05T14:39:38;9.77;;;6.30;;
7191;SDS011;3637;51.494;11.958;2022-12-05T14:42:42;10.73;;;6.67;;
7191;SDS011;3637;51.494;11.958;2022-12-05T14:45:57;9.33;;;6.93;;
7191;SDS011;3637;51.494;11.958;2022-12-05T14:56:30;8.60;;;6.33;;
7191;SDS011;3637;51.494;11.958;2022-12-05T14:59:36;10.67;;;7.70;;
7191;SDS011;3637;51.494;11.958;2022-12-05T15:02:46;12.50;;;7.63;;
7191;SDS011;3637;51.494;11.958;2022-12-05T15:05:49;11.33;;;8.40;;
7191;SDS011;3637;51.494;11.958;2022-12-05T15:08:53;9.27;;;6.70;;
7191;SDS011;3637;51.494;11.958;2022-12-05T15:11:58;8.90;;;7.00;;
7191;SDS011;3637;51.494;11.958;2022-12-05T15:15:04;12.10;;;8.30;;
7191;SDS011;3637;51.494;11.958;2022-12-05T15:18:15;12.17;;;8.17;;
7191;SDS011;3637;51.494;11.958;2022-12-05T15:21:21;10.87;;;7.77;;
7191;SDS011;3637;51.494;11.958;2022-12-05T15:24:26;16.83;;;10.67;;
7191;SDS011;3637;51.494;11.958;2022-12-05T15:27:36;15.63;;;9.30;;
7191;SDS011;3637;51.494;11.958;2022-12-05T15:30:39;18.07;;;10.23;;
7191;SDS011;3637;51.494;11.958;2022-12-05T15:33:49;13.97;;;8.93;;
7191;SDS011;3637;51.494;11.958;2022-12-05T15:36:55;22.50;;;11.33;;
7191;SDS011;3637;51.494;11.958;2022-12-05T15:40:01;14.23;;;8.67;;
7191;SDS011;3637;51.494;11.958;2022-12-05T15:43:25;23.70;;;11.20;;
7191;SDS011;3637;51.494;11.958;2022-12-05T15:46:29;35.13;;;15.47;;
7191;SDS011;3637;51.494;11.958;2022-12-05T15:49:33;17.87;;;9.20;;
7191;SDS011;3637;51.494;11.958;2022-12-05T15:52:35;20.00;;;10.67;;
7191;SDS011;3637;51.494;11.958;2022-12-05T15:55:44;20.67;;;10.47;;
7191;SDS011;3637;51.494;11.958;2022-12-05T15:58:52;20.70;;;10.90;;
7191;SDS011;3637;51.494;11.958;2022-12-05T16:02:00;16.93;;;9.73;;
7191;SDS011;3637;51.494;11.958;2022-12-05T16:05:19;16.13;;;8.63;;
7191;SDS011;3637;51.494;11.958;2022-12-05T16:08:25;16.50;;;9.83;;
7191;SDS011;3637;51.494;11.958;2022-12-05T16:11:30;11.87;;;8.37;;
7191;SDS011;3637;51.494;11.958;2022-12-05T16:14:32;14.77;;;8.60;;
7191;SDS011;3637;51.494;11.958;2022-12-05T16:17:37;15.30;;;7.87;;
7191;SDS011;3637;51.494;11.958;2022-12-05T16:20:43;14.67;;;8.43;;
7191;SDS011;3637;51.494;11.958;2022-12-05T16:23:45;14.27;;;8.50;;
7191;SDS011;3637;51.494;11.958;2022-12-05T16:26:51;15.07;;;7.40;;
7191;SDS011;3637;51.494;11.958;2022-12-05T16:30:05;10.57;;;7.07;;
7191;SDS011;3637;51.494;11.958;2022-12-05T16:33:11;8.93;;;6.10;;
7191;SDS011;3637;51.494;11.958;2022-12-05T16:36:17;12.33;;;6.93;;
7191;SDS011;3637;51.494;11.958;2022-12-05T16:39:19;12.43;;;7.20;;
7191;SDS011;3637;51.494;11.958;2022-12-05T16:42:22;9.20;;;6.83;;
7191;SDS011;3637;51.494;11.958;2022-12-05T16:45:36;19.90;;;10.50;;
7191;SDS011;3637;51.494;11.958;2022-12-05T16:48:40;14.37;;;8.37;;
7191;SDS011;3637;51.494;11.958;2022-12-05T16:51:45;10.97;;;7.20;;
7191;SDS011;3637;51.494;11.958;2022-12-05T16:54:55;11.10;;;7.00;;
7191;SDS011;3637;51.494;11.958;2022-12-05T16:57:57;10.57;;;7.63;;
7191;SDS011;3637;51.494;11.958;2022-12-05T17:01:01;13.37;;;7.60;;
7191;SDS011;3637;51.494;11.958;2022-12-05T17:04:07;12.23;;;7.87;;
7191;SDS011;3637;51.494;11.958;2022-12-05T17:07:12;12.90;;;7.30;;
7191;SDS011;3637;51.494;11.958;2022-12-05T17:10:14;12.90;;;8.53;;
7191;SDS011;3637;51.494;11.958;2022-12-05T17:13:16;10.23;;;7.67;;
7191;SDS011;3637;51.494;11.958;2022-12-05T17:16:19;12.07;;;8.37;;
7191;SDS011;3637;51.494;11.958;2022-12-05T17:19:21;9.40;;;6.67;;
7191;SDS011;3637;51.494;11.958;2022-12-05T17:22:25;9.57;;;6.77;;
7191;SDS011;3637;51.494;11.958;2022-12-05T17:25:29;9.50;;;7.53;;
7191;SDS011;3637;51.494;11.958;2022-12-05T17:28:36;11.13;;;7.83;;
7191;SDS011;3637;51.494;11.958;2022-12-05T17:31:37;13.37;;;7.73;;
7191;SDS011;3637;51.494;11.958;2022-12-05T17:34:39;11.90;;;8.13;;
7191;SDS011;3637;51.494;11.958;2022-12-05T17:37:43;14.80;;;8.33;;
7191;SDS011;3637;51.494;11.958;2022-12-05T17:40:45;11.07;;;7.77;;
7191;SDS011;3637;51.494;11.958;2022-12-05T17:43:47;13.43;;;8.03;;
7191;SDS011;3637;51.494;11.958;2022-12-05T17:46:50;15.97;;;8.40;;
7191;SDS011;3637;51.494;11.958;2022-12-05T17:49:52;12.10;;;7.00;;
7191;SDS011;3637;51.494;11.958;2022-12-05T17:52:56;14.37;;;8.57;;
7191;SDS011;3637;51.494;11.958;2022-12-05T17:55:58;13.00;;;7.77;;
7191;SDS011;3637;51.494;11.958;2022-12-05T17:59:00;11.40;;;7.77;;
7191;SDS011;3637;51.494;11.958;2022-12-05T18:02:02;14.77;;;8.47;;
7191;SDS011;3637;51.494;11.958;2022-12-05T18:05:04;16.77;;;9.40;;
7191;SDS011;3637;51.494;11.958;2022-12-05T18:08:09;13.37;;;8.00;;
7191;SDS011;3637;51.494;11.958;2022-12-05T18:11:11;13.47;;;8.83;;
7191;SDS011;3637;51.494;11.958;2022-12-05T18:14:14;14.17;;;8.83;;
7191;SDS011;3637;51.494;11.958;2022-12-05T18:17:16;12.47;;;8.00;;
7191;SDS011;3637;51.494;11.958;2022-12-05T18:20:18;11.30;;;8.17;;
7191;SDS011;3637;51.494;11.958;2022-12-05T18:23:21;14.87;;;9.30;;
7191;SDS011;3637;51.494;11.958;2022-12-05T18:26:23;12.57;;;9.23;;
7191;SDS011;3637;51.494;11.958;2022-12-05T18:29:25;14.97;;;8.30;;
7191;SDS011;3637;51.494;11.958;2022-12-05T18:32:29;15.77;;;9.10;;
7191;SDS011;3637;51.494;11.958;2022-12-05T18:35:31;15.03;;;8.43;;
7191;SDS011;3637;51.494;11.958;2022-12-05T18:38:47;17.30;;;8.20;;
7191;SDS011;3637;51.494;11.958;2022-12-05T18:41:50;16.67;;;9.23;;
7191;SDS011;3637;51.494;11.958;2022-12-05T18:44:52;18.50;;;9.83;;
7191;SDS011;3637;51.494;11.958;2022-12-05T18:47:54;19.53;;;9.27;;
7191;SDS011;3637;51.494;11.958;2022-12-05T18:51:04;16.40;;;8.83;;
7191;SDS011;3637;51.494;11.958;2022-12-05T18:54:09;13.60;;;8.27;;
7191;SDS011;3637;51.494;11.958;2022-12-05T18:57:11;15.80;;;8.93;;
7191;SDS011;3637;51.494;11.958;2022-12-05T19:00:13;12.70;;;9.17;;